Garfield County Regional Airport Rifle US
ICAO: KRIL
IATA: RIL
Category: Medium
Scheduled Services: No

Elevation: 5548 ft
TransAlt. 18000 ft.

Airport Communications:
ASOS:135.275
DENVER CNTR:134.5
CTAF/UNICOM:122.8

KRIL Zoom In..

Runways:

(A) RW 08 length 7000 ft width 100 ft
---- / hdg 78

(B) RW 26 length 7000 ft width 100 ft
ILS 110.90 / hdg 258

Location; KRIL
Day. 04 / Time. 01.53 Zulu
* Altimeter: 30.37
* Temperature: -04° c. -24.8°f.
* Wind from: 110° Speed 04 kn.
Dewpoint: -16° c.
Visibility: 10 Statute Miles.
Clouds: Clear (automated report).

KRIL 040153Z AUTO 11004KT 10SM CLR M04/M16 A3037 RMK AO2 SLP343 T10441161 $

Going to: --> -->


Wind From 110°
Speed 04 kn.

 
 
jpsmedia worldairports.se 2020   terms of use